sensor_id;sensor_type;location;lat;lon;timestamp;P1;durP1;ratioP1;P2;durP2;ratioP2
11533;SDS011;5823;50.588;8.462;2023-11-21T00:01:53;0.20;;;0.20;;
11533;SDS011;5823;50.588;8.462;2023-11-21T00:04:20;0.10;;;0.10;;
11533;SDS011;5823;50.588;8.462;2023-11-21T00:06:47;0.30;;;0.30;;
11533;SDS011;5823;50.588;8.462;2023-11-21T00:09:14;0.15;;;0.15;;
11533;SDS011;5823;50.588;8.462;2023-11-21T00:11:42;0.10;;;0.10;;
11533;SDS011;5823;50.588;8.462;2023-11-21T00:14:09;0.20;;;0.10;;
11533;SDS011;5823;50.588;8.462;2023-11-21T00:16:35;0.20;;;0.20;;
11533;SDS011;5823;50.588;8.462;2023-11-21T00:19:02;0.10;;;0.10;;
11533;SDS011;5823;50.588;8.462;2023-11-21T00:21:28;0.10;;;0.10;;
11533;SDS011;5823;50.588;8.462;2023-11-21T00:23:55;0.10;;;0.10;;
11533;SDS011;5823;50.588;8.462;2023-11-21T00:26:22;0.10;;;0.10;;
11533;SDS011;5823;50.588;8.462;2023-11-21T00:28:49;0.00;;;0.00;;
11533;SDS011;5823;50.588;8.462;2023-11-21T00:31:15;0.10;;;0.10;;
11533;SDS011;5823;50.588;8.462;2023-11-21T00:33:41;0.10;;;0.10;;
11533;SDS011;5823;50.588;8.462;2023-11-21T00:36:08;0.20;;;0.20;;
11533;SDS011;5823;50.588;8.462;2023-11-21T00:38:34;0.20;;;0.10;;
11533;SDS011;5823;50.588;8.462;2023-11-21T00:41:02;0.10;;;0.10;;
11533;SDS011;5823;50.588;8.462;2023-11-21T00:43:28;0.10;;;0.10;;
11533;SDS011;5823;50.588;8.462;2023-11-21T00:45:55;0.00;;;0.00;;
11533;SDS011;5823;50.588;8.462;2023-11-21T00:48:21;0.10;;;0.10;;
11533;SDS011;5823;50.588;8.462;2023-11-21T00:50:48;0.10;;;0.10;;
11533;SDS011;5823;50.588;8.462;2023-11-21T00:53:15;0.13;;;0.10;;
11533;SDS011;5823;50.588;8.462;2023-11-21T00:55:42;0.10;;;0.10;;
11533;SDS011;5823;50.588;8.462;2023-11-21T00:58:09;0.05;;;0.05;;
11533;SDS011;5823;50.588;8.462;2023-11-21T01:00:36;0.10;;;0.10;;
11533;SDS011;5823;50.588;8.462;2023-11-21T01:03:04;0.00;;;0.00;;
11533;SDS011;5823;50.588;8.462;2023-11-21T01:05:32;0.00;;;0.00;;
11533;SDS011;5823;50.588;8.462;2023-11-21T01:07:59;0.03;;;0.00;;
11533;SDS011;5823;50.588;8.462;2023-11-21T01:10:25;0.10;;;0.00;;
11533;SDS011;5823;50.588;8.462;2023-11-21T01:12:51;0.00;;;0.00;;
11533;SDS011;5823;50.588;8.462;2023-11-21T01:15:19;0.00;;;0.00;;
11533;SDS011;5823;50.588;8.462;2023-11-21T01:17:45;0.00;;;0.00;;
11533;SDS011;5823;50.588;8.462;2023-11-21T01:20:12;0.00;;;0.00;;
11533;SDS011;5823;50.588;8.462;2023-11-21T01:22:38;0.05;;;0.05;;
11533;SDS011;5823;50.588;8.462;2023-11-21T01:25:05;0.00;;;0.00;;
11533;SDS011;5823;50.588;8.462;2023-11-21T01:27:32;0.00;;;0.00;;
11533;SDS011;5823;50.588;8.462;2023-11-21T01:29:58;0.00;;;0.00;;
11533;SDS011;5823;50.588;8.462;2023-11-21T01:32:26;0.00;;;0.00;;
11533;SDS011;5823;50.588;8.462;2023-11-21T01:34:53;0.00;;;0.00;;
11533;SDS011;5823;50.588;8.462;2023-11-21T01:37:20;0.00;;;0.00;;
11533;SDS011;5823;50.588;8.462;2023-11-21T01:39:46;0.00;;;0.00;;
11533;SDS011;5823;50.588;8.462;2023-11-21T01:42:13;0.00;;;0.00;;
11533;SDS011;5823;50.588;8.462;2023-11-21T01:44:39;0.03;;;0.03;;
11533;SDS011;5823;50.588;8.462;2023-11-21T01:47:05;0.05;;;0.00;;
11533;SDS011;5823;50.588;8.462;2023-11-21T01:49:34;0.10;;;0.10;;
11533;SDS011;5823;50.588;8.462;2023-11-21T01:52:00;0.00;;;0.00;;
11533;SDS011;5823;50.588;8.462;2023-11-21T01:54:27;0.10;;;0.10;;
11533;SDS011;5823;50.588;8.462;2023-11-21T01:56:56;0.00;;;0.00;;
11533;SDS011;5823;50.588;8.462;2023-11-21T01:59:24;0.10;;;0.10;;
11533;SDS011;5823;50.588;8.462;2023-11-21T02:01:51;0.10;;;0.10;;
11533;SDS011;5823;50.588;8.462;2023-11-21T02:04:18;0.03;;;0.03;;
11533;SDS011;5823;50.588;8.462;2023-11-21T02:06:47;0.00;;;0.00;;
11533;SDS011;5823;50.588;8.462;2023-11-21T02:09:13;0.00;;;0.00;;
11533;SDS011;5823;50.588;8.462;2023-11-21T02:11:40;0.20;;;0.20;;
11533;SDS011;5823;50.588;8.462;2023-11-21T02:14:07;0.30;;;0.20;;
11533;SDS011;5823;50.588;8.462;2023-11-21T02:16:34;0.00;;;0.00;;
11533;SDS011;5823;50.588;8.462;2023-11-21T02:19:01;0.00;;;0.00;;
11533;SDS011;5823;50.588;8.462;2023-11-21T02:21:28;0.10;;;0.10;;
11533;SDS011;5823;50.588;8.462;2023-11-21T02:23:57;0.10;;;0.10;;
11533;SDS011;5823;50.588;8.462;2023-11-21T02:26:23;0.10;;;0.10;;
11533;SDS011;5823;50.588;8.462;2023-11-21T02:28:51;0.00;;;0.00;;
11533;SDS011;5823;50.588;8.462;2023-11-21T02:31:18;0.00;;;0.00;;
11533;SDS011;5823;50.588;8.462;2023-11-21T02:33:44;0.10;;;0.10;;
11533;SDS011;5823;50.588;8.462;2023-11-21T02:36:10;0.00;;;0.00;;
11533;SDS011;5823;50.588;8.462;2023-11-21T02:38:37;0.00;;;0.00;;
11533;SDS011;5823;50.588;8.462;2023-11-21T02:41:04;0.03;;;0.03;;
11533;SDS011;5823;50.588;8.462;2023-11-21T02:43:31;0.00;;;0.00;;
11533;SDS011;5823;50.588;8.462;2023-11-21T02:45:57;0.10;;;0.10;;
11533;SDS011;5823;50.588;8.462;2023-11-21T02:48:23;0.08;;;0.08;;
11533;SDS011;5823;50.588;8.462;2023-11-21T02:50:50;0.17;;;0.17;;
11533;SDS011;5823;50.588;8.462;2023-11-21T02:53:18;0.00;;;0.00;;
11533;SDS011;5823;50.588;8.462;2023-11-21T02:55:44;0.13;;;0.10;;
11533;SDS011;5823;50.588;8.462;2023-11-21T02:58:12;0.10;;;0.10;;
11533;SDS011;5823;50.588;8.462;2023-11-21T03:00:38;0.00;;;0.00;;
11533;SDS011;5823;50.588;8.462;2023-11-21T03:03:05;0.05;;;0.05;;
11533;SDS011;5823;50.588;8.462;2023-11-21T03:05:31;0.00;;;0.00;;
11533;SDS011;5823;50.588;8.462;2023-11-21T03:08:00;0.05;;;0.05;;
11533;SDS011;5823;50.588;8.462;2023-11-21T03:10:26;0.00;;;0.00;;
11533;SDS011;5823;50.588;8.462;2023-11-21T03:12:52;0.05;;;0.05;;
11533;SDS011;5823;50.588;8.462;2023-11-21T03:15:20;0.00;;;0.00;;
11533;SDS011;5823;50.588;8.462;2023-11-21T03:17:46;0.00;;;0.00;;
11533;SDS011;5823;50.588;8.462;2023-11-21T03:20:14;0.03;;;0.03;;
11533;SDS011;5823;50.588;8.462;2023-11-21T03:22:41;0.00;;;0.00;;
11533;SDS011;5823;50.588;8.462;2023-11-21T03:25:07;0.10;;;0.10;;
11533;SDS011;5823;50.588;8.462;2023-11-21T03:27:36;0.00;;;0.00;;
11533;SDS011;5823;50.588;8.462;2023-11-21T03:30:03;0.10;;;0.10;;
11533;SDS011;5823;50.588;8.462;2023-11-21T03:32:33;0.10;;;0.10;;
11533;SDS011;5823;50.588;8.462;2023-11-21T03:34:59;0.10;;;0.10;;
11533;SDS011;5823;50.588;8.462;2023-11-21T03:37:27;0.10;;;0.10;;
11533;SDS011;5823;50.588;8.462;2023-11-21T03:39:54;0.00;;;0.00;;
11533;SDS011;5823;50.588;8.462;2023-11-21T03:42:21;0.00;;;0.00;;
11533;SDS011;5823;50.588;8.462;2023-11-21T03:44:47;0.10;;;0.10;;
11533;SDS011;5823;50.588;8.462;2023-11-21T03:47:13;0.05;;;0.05;;
11533;SDS011;5823;50.588;8.462;2023-11-21T03:49:41;0.43;;;0.20;;
11533;SDS011;5823;50.588;8.462;2023-11-21T03:52:07;0.05;;;0.05;;
11533;SDS011;5823;50.588;8.462;2023-11-21T03:54:34;0.10;;;0.10;;
11533;SDS011;5823;50.588;8.462;2023-11-21T03:57:01;0.13;;;0.10;;
11533;SDS011;5823;50.588;8.462;2023-11-21T03:59:27;0.10;;;0.10;;
11533;SDS011;5823;50.588;8.462;2023-11-21T04:01:54;0.10;;;0.10;;
11533;SDS011;5823;50.588;8.462;2023-11-21T04:04:21;0.10;;;0.10;;
11533;SDS011;5823;50.588;8.462;2023-11-21T04:06:49;0.15;;;0.10;;
11533;SDS011;5823;50.588;8.462;2023-11-21T04:09:16;0.10;;;0.10;;
11533;SDS011;5823;50.588;8.462;2023-11-21T04:11:43;0.15;;;0.15;;
11533;SDS011;5823;50.588;8.462;2023-11-21T04:14:10;0.10;;;0.10;;
11533;SDS011;5823;50.588;8.462;2023-11-21T04:16:36;0.03;;;0.03;;
11533;SDS011;5823;50.588;8.462;2023-11-21T04:19:03;0.10;;;0.10;;
11533;SDS011;5823;50.588;8.462;2023-11-21T04:21:29;0.05;;;0.05;;
11533;SDS011;5823;50.588;8.462;2023-11-21T04:23:58;0.17;;;0.17;;
11533;SDS011;5823;50.588;8.462;2023-11-21T04:26:24;0.40;;;0.30;;
11533;SDS011;5823;50.588;8.462;2023-11-21T04:28:50;0.15;;;0.15;;
11533;SDS011;5823;50.588;8.462;2023-11-21T04:31:16;0.45;;;0.30;;
11533;SDS011;5823;50.588;8.462;2023-11-21T04:33:43;0.13;;;0.13;;
11533;SDS011;5823;50.588;8.462;2023-11-21T04:36:09;0.20;;;0.20;;
11533;SDS011;5823;50.588;8.462;2023-11-21T04:38:36;0.20;;;0.20;;
11533;SDS011;5823;50.588;8.462;2023-11-21T04:41:03;0.38;;;0.30;;
11533;SDS011;5823;50.588;8.462;2023-11-21T04:43:30;0.20;;;0.20;;
11533;SDS011;5823;50.588;8.462;2023-11-21T04:45:56;0.40;;;0.40;;
11533;SDS011;5823;50.588;8.462;2023-11-21T04:48:22;0.38;;;0.38;;
11533;SDS011;5823;50.588;8.462;2023-11-21T04:50:49;0.20;;;0.20;;
11533;SDS011;5823;50.588;8.462;2023-11-21T04:53:15;0.10;;;0.10;;
11533;SDS011;5823;50.588;8.462;2023-11-21T04:55:42;0.30;;;0.30;;
11533;SDS011;5823;50.588;8.462;2023-11-21T04:58:10;0.40;;;0.40;;
11533;SDS011;5823;50.588;8.462;2023-11-21T05:00:37;0.20;;;0.20;;
11533;SDS011;5823;50.588;8.462;2023-11-21T05:03:03;0.08;;;0.08;;
11533;SDS011;5823;50.588;8.462;2023-11-21T05:05:30;0.13;;;0.13;;
11533;SDS011;5823;50.588;8.462;2023-11-21T05:07:56;0.28;;;0.28;;
11533;SDS011;5823;50.588;8.462;2023-11-21T05:10:22;0.30;;;0.30;;
11533;SDS011;5823;50.588;8.462;2023-11-21T05:12:48;0.15;;;0.15;;
11533;SDS011;5823;50.588;8.462;2023-11-21T05:15:17;0.40;;;0.40;;
11533;SDS011;5823;50.588;8.462;2023-11-21T05:17:43;0.30;;;0.30;;
11533;SDS011;5823;50.588;8.462;2023-11-21T05:20:10;0.40;;;0.40;;
11533;SDS011;5823;50.588;8.462;2023-11-21T05:22:39;0.38;;;0.35;;
11533;SDS011;5823;50.588;8.462;2023-11-21T05:25:05;0.40;;;0.40;;
11533;SDS011;5823;50.588;8.462;2023-11-21T05:27:32;0.40;;;0.40;;
11533;SDS011;5823;50.588;8.462;2023-11-21T05:30:00;0.20;;;0.20;;
11533;SDS011;5823;50.588;8.462;2023-11-21T05:32:28;0.30;;;0.30;;
11533;SDS011;5823;50.588;8.462;2023-11-21T05:34:54;0.30;;;0.30;;
11533;SDS011;5823;50.588;8.462;2023-11-21T05:37:21;0.43;;;0.43;;
11533;SDS011;5823;50.588;8.462;2023-11-21T05:39:48;0.95;;;0.40;;
11533;SDS011;5823;50.588;8.462;2023-11-21T05:42:14;0.20;;;0.20;;
11533;SDS011;5823;50.588;8.462;2023-11-21T05:44:42;0.30;;;0.30;;
11533;SDS011;5823;50.588;8.462;2023-11-21T05:47:09;0.10;;;0.10;;
11533;SDS011;5823;50.588;8.462;2023-11-21T05:49:36;0.30;;;0.30;;
11533;SDS011;5823;50.588;8.462;2023-11-21T05:52:03;0.20;;;0.20;;
11533;SDS011;5823;50.588;8.462;2023-11-21T05:54:30;0.20;;;0.20;;
11533;SDS011;5823;50.588;8.462;2023-11-21T05:56:56;0.20;;;0.20;;
11533;SDS011;5823;50.588;8.462;2023-11-21T05:59:22;0.20;;;0.20;;
11533;SDS011;5823;50.588;8.462;2023-11-21T06:01:49;0.10;;;0.10;;
11533;SDS011;5823;50.588;8.462;2023-11-21T06:04:15;0.60;;;0.28;;
11533;SDS011;5823;50.588;8.462;2023-11-21T06:06:42;0.40;;;0.40;;
11533;SDS011;5823;50.588;8.462;2023-11-21T06:09:09;0.38;;;0.25;;
11533;SDS011;5823;50.588;8.462;2023-11-21T06:11:36;0.20;;;0.20;;
11533;SDS011;5823;50.588;8.462;2023-11-21T06:14:03;0.30;;;0.30;;
11533;SDS011;5823;50.588;8.462;2023-11-21T06:16:31;0.43;;;0.43;;
11533;SDS011;5823;50.588;8.462;2023-11-21T06:18:57;0.40;;;0.40;;
11533;SDS011;5823;50.588;8.462;2023-11-21T06:21:24;0.30;;;0.30;;
11533;SDS011;5823;50.588;8.462;2023-11-21T06:23:52;0.40;;;0.40;;
11533;SDS011;5823;50.588;8.462;2023-11-21T06:26:18;0.40;;;0.40;;
11533;SDS011;5823;50.588;8.462;2023-11-21T06:28:45;0.30;;;0.30;;
11533;SDS011;5823;50.588;8.462;2023-11-21T06:31:11;0.40;;;0.40;;
11533;SDS011;5823;50.588;8.462;2023-11-21T06:33:39;0.38;;;0.38;;
11533;SDS011;5823;50.588;8.462;2023-11-21T06:36:05;0.30;;;0.30;;
11533;SDS011;5823;50.588;8.462;2023-11-21T06:38:32;0.40;;;0.40;;
11533;SDS011;5823;50.588;8.462;2023-11-21T06:40:59;0.35;;;0.35;;
11533;SDS011;5823;50.588;8.462;2023-11-21T06:43:27;0.30;;;0.30;;
11533;SDS011;5823;50.588;8.462;2023-11-21T06:45:53;0.30;;;0.30;;
11533;SDS011;5823;50.588;8.462;2023-11-21T06:48:19;0.40;;;0.40;;
11533;SDS011;5823;50.588;8.462;2023-11-21T06:50:46;0.30;;;0.30;;
11533;SDS011;5823;50.588;8.462;2023-11-21T06:53:12;0.30;;;0.30;;
11533;SDS011;5823;50.588;8.462;2023-11-21T06:55:38;0.20;;;0.20;;
11533;SDS011;5823;50.588;8.462;2023-11-21T06:58:06;0.30;;;0.30;;
11533;SDS011;5823;50.588;8.462;2023-11-21T07:00:32;0.20;;;0.20;;
11533;SDS011;5823;50.588;8.462;2023-11-21T07:02:59;0.30;;;0.30;;
11533;SDS011;5823;50.588;8.462;2023-11-21T07:05:25;0.22;;;0.20;;
11533;SDS011;5823;50.588;8.462;2023-11-21T07:07:51;0.52;;;0.30;;
11533;SDS011;5823;50.588;8.462;2023-11-21T07:10:19;0.28;;;0.28;;
11533;SDS011;5823;50.588;8.462;2023-11-21T07:12:45;0.30;;;0.30;;
11533;SDS011;5823;50.588;8.462;2023-11-21T07:15:13;0.40;;;0.40;;
11533;SDS011;5823;50.588;8.462;2023-11-21T07:17:39;0.30;;;0.30;;
11533;SDS011;5823;50.588;8.462;2023-11-21T07:20:06;0.47;;;0.28;;
11533;SDS011;5823;50.588;8.462;2023-11-21T07:22:33;0.10;;;0.10;;
11533;SDS011;5823;50.588;8.462;2023-11-21T07:24:59;0.20;;;0.20;;
11533;SDS011;5823;50.588;8.462;2023-11-21T07:27:26;0.20;;;0.20;;
11533;SDS011;5823;50.588;8.462;2023-11-21T07:29:52;0.22;;;0.22;;
11533;SDS011;5823;50.588;8.462;2023-11-21T07:32:20;0.13;;;0.13;;
11533;SDS011;5823;50.588;8.462;2023-11-21T07:34:46;0.30;;;0.30;;
11533;SDS011;5823;50.588;8.462;2023-11-21T07:37:12;0.35;;;0.35;;
11533;SDS011;5823;50.588;8.462;2023-11-21T07:39:38;1.10;;;0.20;;
11533;SDS011;5823;50.588;8.462;2023-11-21T07:42:06;0.25;;;0.25;;
11533;SDS011;5823;50.588;8.462;2023-11-21T07:44:33;0.20;;;0.20;;
11533;SDS011;5823;50.588;8.462;2023-11-21T07:46:59;0.40;;;0.40;;
11533;SDS011;5823;50.588;8.462;2023-11-21T07:49:27;0.38;;;0.38;;
11533;SDS011;5823;50.588;8.462;2023-11-21T07:51:53;0.32;;;0.32;;
11533;SDS011;5823;50.588;8.462;2023-11-21T07:54:19;0.25;;;0.25;;
11533;SDS011;5823;50.588;8.462;2023-11-21T07:56:46;0.28;;;0.22;;
11533;SDS011;5823;50.588;8.462;2023-11-21T07:59:12;0.20;;;0.20;;
11533;SDS011;5823;50.588;8.462;2023-11-21T08:01:39;0.13;;;0.13;;
11533;SDS011;5823;50.588;8.462;2023-11-21T08:04:08;0.40;;;0.40;;
11533;SDS011;5823;50.588;8.462;2023-11-21T08:06:35;0.25;;;0.25;;
11533;SDS011;5823;50.588;8.462;2023-11-21T08:09:02;0.28;;;0.28;;
11533;SDS011;5823;50.588;8.462;2023-11-21T08:11:28;0.43;;;0.43;;
11533;SDS011;5823;50.588;8.462;2023-11-21T08:13:56;0.22;;;0.22;;
11533;SDS011;5823;50.588;8.462;2023-11-21T08:16:24;0.40;;;0.40;;
11533;SDS011;5823;50.588;8.462;2023-11-21T08:18:50;0.32;;;0.32;;
11533;SDS011;5823;50.588;8.462;2023-11-21T08:21:16;0.30;;;0.30;;
11533;SDS011;5823;50.588;8.462;2023-11-21T08:23:45;0.38;;;0.38;;
11533;SDS011;5823;50.588;8.462;2023-11-21T08:26:11;0.38;;;0.38;;
11533;SDS011;5823;50.588;8.462;2023-11-21T08:28:38;0.20;;;0.20;;
11533;SDS011;5823;50.588;8.462;2023-11-21T08:31:05;0.25;;;0.25;;
11533;SDS011;5823;50.588;8.462;2023-11-21T08:33:31;0.30;;;0.30;;
11533;SDS011;5823;50.588;8.462;2023-11-21T08:35:57;0.38;;;0.38;;
11533;SDS011;5823;50.588;8.462;2023-11-21T08:38:26;0.22;;;0.22;;
11533;SDS011;5823;50.588;8.462;2023-11-21T08:40:54;0.20;;;0.20;;
11533;SDS011;5823;50.588;8.462;2023-11-21T08:43:20;0.20;;;0.20;;
11533;SDS011;5823;50.588;8.462;2023-11-21T08:45:46;0.20;;;0.20;;
11533;SDS011;5823;50.588;8.462;2023-11-21T08:48:13;0.10;;;0.10;;
11533;SDS011;5823;50.588;8.462;2023-11-21T08:50:39;0.20;;;0.20;;
11533;SDS011;5823;50.588;8.462;2023-11-21T08:53:05;0.30;;;0.30;;
11533;SDS011;5823;50.588;8.462;2023-11-21T08:55:31;0.20;;;0.20;;
11533;SDS011;5823;50.588;8.462;2023-11-21T08:58:03;0.20;;;0.20;;
11533;SDS011;5823;50.588;8.462;2023-11-21T09:00:31;0.30;;;0.30;;
11533;SDS011;5823;50.588;8.462;2023-11-21T09:02:58;0.20;;;0.20;;
11533;SDS011;5823;50.588;8.462;2023-11-21T09:05:24;0.20;;;0.20;;
11533;SDS011;5823;50.588;8.462;2023-11-21T09:07:51;0.10;;;0.10;;
11533;SDS011;5823;50.588;8.462;2023-11-21T09:10:17;0.10;;;0.10;;
11533;SDS011;5823;50.588;8.462;2023-11-21T09:12:44;0.20;;;0.20;;
11533;SDS011;5823;50.588;8.462;2023-11-21T09:15:11;0.20;;;0.20;;
11533;SDS011;5823;50.588;8.462;2023-11-21T09:17:39;0.20;;;0.20;;
11533;SDS011;5823;50.588;8.462;2023-11-21T09:20:06;0.10;;;0.10;;
11533;SDS011;5823;50.588;8.462;2023-11-21T09:22:35;0.22;;;0.22;;
11533;SDS011;5823;50.588;8.462;2023-11-21T09:25:01;0.20;;;0.20;;
11533;SDS011;5823;50.588;8.462;2023-11-21T09:27:30;0.10;;;0.10;;
11533;SDS011;5823;50.588;8.462;2023-11-21T09:29:56;0.20;;;0.20;;
11533;SDS011;5823;50.588;8.462;2023-11-21T09:32:24;0.30;;;0.30;;
11533;SDS011;5823;50.588;8.462;2023-11-21T09:34:50;0.20;;;0.20;;
11533;SDS011;5823;50.588;8.462;2023-11-21T09:37:17;0.20;;;0.20;;
11533;SDS011;5823;50.588;8.462;2023-11-21T09:39:44;0.30;;;0.30;;
11533;SDS011;5823;50.588;8.462;2023-11-21T09:42:12;0.00;;;0.00;;
11533;SDS011;5823;50.588;8.462;2023-11-21T09:44:44;0.20;;;0.20;;
11533;SDS011;5823;50.588;8.462;2023-11-21T09:47:14;0.20;;;0.20;;
11533;SDS011;5823;50.588;8.462;2023-11-21T09:49:42;0.30;;;0.30;;
11533;SDS011;5823;50.588;8.462;2023-11-21T09:52:11;0.17;;;0.17;;
11533;SDS011;5823;50.588;8.462;2023-11-21T09:54:42;0.10;;;0.10;;
11533;SDS011;5823;50.588;8.462;2023-11-21T09:57:09;0.25;;;0.25;;
11533;SDS011;5823;50.588;8.462;2023-11-21T09:59:35;0.20;;;0.20;;
11533;SDS011;5823;50.588;8.462;2023-11-21T10:02:03;0.40;;;0.30;;
11533;SDS011;5823;50.588;8.462;2023-11-21T10:04:30;0.10;;;0.10;;
11533;SDS011;5823;50.588;8.462;2023-11-21T10:06:58;0.13;;;0.13;;
11533;SDS011;5823;50.588;8.462;2023-11-21T10:09:25;0.15;;;0.15;;
11533;SDS011;5823;50.588;8.462;2023-11-21T10:11:52;0.20;;;0.20;;
11533;SDS011;5823;50.588;8.462;2023-11-21T10:14:18;0.20;;;0.20;;
11533;SDS011;5823;50.588;8.462;2023-11-21T10:16:45;0.10;;;0.10;;
11533;SDS011;5823;50.588;8.462;2023-11-21T10:19:13;0.40;;;0.40;;
11533;SDS011;5823;50.588;8.462;2023-11-21T10:21:41;0.20;;;0.20;;
11533;SDS011;5823;50.588;8.462;2023-11-21T10:24:09;0.10;;;0.10;;
11533;SDS011;5823;50.588;8.462;2023-11-21T10:26:37;0.20;;;0.20;;
11533;SDS011;5823;50.588;8.462;2023-11-21T10:29:03;0.17;;;0.17;;
11533;SDS011;5823;50.588;8.462;2023-11-21T10:31:30;0.10;;;0.10;;
11533;SDS011;5823;50.588;8.462;2023-11-21T10:33:57;0.10;;;0.10;;
11533;SDS011;5823;50.588;8.462;2023-11-21T10:36:35;0.03;;;0.03;;
11533;SDS011;5823;50.588;8.462;2023-11-21T10:39:02;0.35;;;0.13;;
11533;SDS011;5823;50.588;8.462;2023-11-21T10:41:29;0.20;;;0.20;;
11533;SDS011;5823;50.588;8.462;2023-11-21T10:43:55;0.22;;;0.20;;
11533;SDS011;5823;50.588;8.462;2023-11-21T10:46:22;0.05;;;0.00;;
11533;SDS011;5823;50.588;8.462;2023-11-21T10:48:51;0.22;;;0.10;;
11533;SDS011;5823;50.588;8.462;2023-11-21T10:51:18;0.10;;;0.10;;
11533;SDS011;5823;50.588;8.462;2023-11-21T10:53:44;0.00;;;0.00;;
11533;SDS011;5823;50.588;8.462;2023-11-21T10:56:10;0.08;;;0.08;;
11533;SDS011;5823;50.588;8.462;2023-11-21T10:58:43;0.20;;;0.20;;
11533;SDS011;5823;50.588;8.462;2023-11-21T11:01:11;0.38;;;0.20;;
11533;SDS011;5823;50.588;8.462;2023-11-21T11:03:39;0.20;;;0.20;;
11533;SDS011;5823;50.588;8.462;2023-11-21T11:06:06;0.00;;;0.00;;
11533;SDS011;5823;50.588;8.462;2023-11-21T11:08:36;0.15;;;0.15;;
11533;SDS011;5823;50.588;8.462;2023-11-21T11:11:03;0.25;;;0.25;;
11533;SDS011;5823;50.588;8.462;2023-11-21T11:13:29;0.40;;;0.40;;
11533;SDS011;5823;50.588;8.462;2023-11-21T11:15:58;1.00;;;0.73;;
11533;SDS011;5823;50.588;8.462;2023-11-21T11:18:26;1.15;;;0.90;;
11533;SDS011;5823;50.588;8.462;2023-11-21T11:20:53;1.45;;;1.08;;
11533;SDS011;5823;50.588;8.462;2023-11-21T11:23:28;0.98;;;0.77;;
11533;SDS011;5823;50.588;8.462;2023-11-21T11:26:01;0.95;;;0.70;;
11533;SDS011;5823;50.588;8.462;2023-11-21T11:28:37;0.82;;;0.82;;
11533;SDS011;5823;50.588;8.462;2023-11-21T11:31:09;0.60;;;0.60;;
11533;SDS011;5823;50.588;8.462;2023-11-21T11:33:39;0.47;;;0.47;;
11533;SDS011;5823;50.588;8.462;2023-11-21T11:36:10;0.52;;;0.52;;
11533;SDS011;5823;50.588;8.462;2023-11-21T11:38:39;0.70;;;0.70;;
11533;SDS011;5823;50.588;8.462;2023-11-21T11:41:11;0.43;;;0.40;;
11533;SDS011;5823;50.588;8.462;2023-11-21T11:43:38;0.28;;;0.28;;
11533;SDS011;5823;50.588;8.462;2023-11-21T11:46:10;0.20;;;0.20;;
11533;SDS011;5823;50.588;8.462;2023-11-21T11:48:39;0.57;;;0.50;;
11533;SDS011;5823;50.588;8.462;2023-11-21T11:51:06;0.35;;;0.35;;
11533;SDS011;5823;50.588;8.462;2023-11-21T11:53:37;0.10;;;0.10;;
11533;SDS011;5823;50.588;8.462;2023-11-21T11:56:24;0.40;;;0.40;;
11533;SDS011;5823;50.588;8.462;2023-11-21T11:58:51;0.40;;;0.40;;
11533;SDS011;5823;50.588;8.462;2023-11-21T12:01:19;0.38;;;0.30;;
11533;SDS011;5823;50.588;8.462;2023-11-21T12:06:32;0.20;;;0.20;;
11533;SDS011;5823;50.588;8.462;2023-11-21T12:09:00;0.20;;;0.20;;
11533;SDS011;5823;50.588;8.462;2023-11-21T12:11:30;0.30;;;0.30;;
11533;SDS011;5823;50.588;8.462;2023-11-21T12:13:56;0.15;;;0.15;;
11533;SDS011;5823;50.588;8.462;2023-11-21T12:16:25;0.52;;;0.40;;
11533;SDS011;5823;50.588;8.462;2023-11-21T12:18:52;0.32;;;0.32;;
11533;SDS011;5823;50.588;8.462;2023-11-21T12:21:19;0.35;;;0.35;;
11533;SDS011;5823;50.588;8.462;2023-11-21T12:23:45;0.20;;;0.20;;
11533;SDS011;5823;50.588;8.462;2023-11-21T12:26:11;0.30;;;0.30;;
11533;SDS011;5823;50.588;8.462;2023-11-21T12:28:38;0.45;;;0.45;;
11533;SDS011;5823;50.588;8.462;2023-11-21T12:31:04;0.30;;;0.30;;
11533;SDS011;5823;50.588;8.462;2023-11-21T12:33:33;0.40;;;0.40;;
11533;SDS011;5823;50.588;8.462;2023-11-21T12:36:00;0.20;;;0.20;;
11533;SDS011;5823;50.588;8.462;2023-11-21T12:38:33;0.30;;;0.30;;
11533;SDS011;5823;50.588;8.462;2023-11-21T12:40:59;0.22;;;0.22;;
11533;SDS011;5823;50.588;8.462;2023-11-21T12:43:26;0.30;;;0.30;;
11533;SDS011;5823;50.588;8.462;2023-11-21T12:46:04;0.47;;;0.30;;
11533;SDS011;5823;50.588;8.462;2023-11-21T12:48:31;0.40;;;0.40;;
11533;SDS011;5823;50.588;8.462;2023-11-21T12:50:58;0.20;;;0.20;;
11533;SDS011;5823;50.588;8.462;2023-11-21T12:53:27;0.22;;;0.22;;
11533;SDS011;5823;50.588;8.462;2023-11-21T12:56:00;0.30;;;0.30;;
11533;SDS011;5823;50.588;8.462;2023-11-21T12:58:27;0.20;;;0.20;;
11533;SDS011;5823;50.588;8.462;2023-11-21T13:00:54;0.13;;;0.13;;
11533;SDS011;5823;50.588;8.462;2023-11-21T13:03:24;0.38;;;0.38;;
11533;SDS011;5823;50.588;8.462;2023-11-21T13:05:51;0.20;;;0.20;;
11533;SDS011;5823;50.588;8.462;2023-11-21T13:08:23;0.30;;;0.30;;
11533;SDS011;5823;50.588;8.462;2023-11-21T13:10:50;0.40;;;0.40;;
11533;SDS011;5823;50.588;8.462;2023-11-21T13:13:17;0.30;;;0.30;;
11533;SDS011;5823;50.588;8.462;2023-11-21T13:15:47;0.50;;;0.50;;
11533;SDS011;5823;50.588;8.462;2023-11-21T13:18:14;0.28;;;0.28;;
11533;SDS011;5823;50.588;8.462;2023-11-21T13:20:41;0.32;;;0.32;;
11533;SDS011;5823;50.588;8.462;2023-11-21T13:23:08;0.30;;;0.30;;
11533;SDS011;5823;50.588;8.462;2023-11-21T13:25:38;0.50;;;0.50;;
11533;SDS011;5823;50.588;8.462;2023-11-21T13:28:06;0.32;;;0.32;;
11533;SDS011;5823;50.588;8.462;2023-11-21T13:30:32;0.20;;;0.20;;
11533;SDS011;5823;50.588;8.462;2023-11-21T13:32:59;0.50;;;0.50;;
11533;SDS011;5823;50.588;8.462;2023-11-21T13:35:27;0.30;;;0.30;;
11533;SDS011;5823;50.588;8.462;2023-11-21T13:38:03;0.50;;;0.50;;
11533;SDS011;5823;50.588;8.462;2023-11-21T13:40:31;0.30;;;0.30;;
11533;SDS011;5823;50.588;8.462;2023-11-21T13:43:00;0.47;;;0.47;;
11533;SDS011;5823;50.588;8.462;2023-11-21T13:45:29;0.40;;;0.40;;
11533;SDS011;5823;50.588;8.462;2023-11-21T13:47:56;0.22;;;0.22;;
11533;SDS011;5823;50.588;8.462;2023-11-21T13:50:23;0.43;;;0.43;;
11533;SDS011;5823;50.588;8.462;2023-11-21T13:52:54;0.40;;;0.40;;
11533;SDS011;5823;50.588;8.462;2023-11-21T13:55:20;0.22;;;0.22;;
11533;SDS011;5823;50.588;8.462;2023-11-21T13:57:50;0.17;;;0.17;;
11533;SDS011;5823;50.588;8.462;2023-11-21T14:00:18;0.30;;;0.30;;
11533;SDS011;5823;50.588;8.462;2023-11-21T14:03:08;0.10;;;0.10;;
11533;SDS011;5823;50.588;8.462;2023-11-21T14:05:42;0.40;;;0.40;;
11533;SDS011;5823;50.588;8.462;2023-11-21T14:08:09;0.47;;;0.47;;
11533;SDS011;5823;50.588;8.462;2023-11-21T14:10:37;0.20;;;0.20;;
11533;SDS011;5823;50.588;8.462;2023-11-21T14:13:07;0.43;;;0.43;;
11533;SDS011;5823;50.588;8.462;2023-11-21T14:15:36;0.40;;;0.40;;
11533;SDS011;5823;50.588;8.462;2023-11-21T14:18:06;0.82;;;0.40;;
11533;SDS011;5823;50.588;8.462;2023-11-21T14:20:36;0.40;;;0.40;;
11533;SDS011;5823;50.588;8.462;2023-11-21T14:23:02;0.40;;;0.40;;
11533;SDS011;5823;50.588;8.462;2023-11-21T14:25:29;0.17;;;0.17;;
11533;SDS011;5823;50.588;8.462;2023-11-21T14:27:55;0.20;;;0.20;;
11533;SDS011;5823;50.588;8.462;2023-11-21T14:30:22;0.30;;;0.30;;
11533;SDS011;5823;50.588;8.462;2023-11-21T14:32:49;0.28;;;0.20;;
11533;SDS011;5823;50.588;8.462;2023-11-21T14:35:16;0.40;;;0.40;;
11533;SDS011;5823;50.588;8.462;2023-11-21T14:37:42;0.10;;;0.10;;
11533;SDS011;5823;50.588;8.462;2023-11-21T14:40:10;0.17;;;0.17;;
11533;SDS011;5823;50.588;8.462;2023-11-21T14:42:37;0.22;;;0.22;;
11533;SDS011;5823;50.588;8.462;2023-11-21T14:45:05;0.30;;;0.30;;
11533;SDS011;5823;50.588;8.462;2023-11-21T14:47:32;0.20;;;0.20;;
11533;SDS011;5823;50.588;8.462;2023-11-21T14:50:00;0.25;;;0.25;;
11533;SDS011;5823;50.588;8.462;2023-11-21T14:52:47;0.22;;;0.22;;
11533;SDS011;5823;50.588;8.462;2023-11-21T14:55:20;0.15;;;0.15;;
11533;SDS011;5823;50.588;8.462;2023-11-21T14:57:55;0.30;;;0.30;;
11533;SDS011;5823;50.588;8.462;2023-11-21T15:00:21;0.17;;;0.17;;
11533;SDS011;5823;50.588;8.462;2023-11-21T15:03:09;0.30;;;0.30;;
11533;SDS011;5823;50.588;8.462;2023-11-21T15:05:36;0.10;;;0.10;;